Time;durP1;ratioP1;P1;durP2;ratioP2;P2;SDS_P1;SDS_P2;PMS_P1;PMS_P2;Temp;Humidity;BMP_temperature;BMP_pressure;BME280_temperature;BME280_humidity;BME280_pressure;Samples;Min_cycle;Max_cycle;Signal;HPM_P1;HPM_P2
2022/02/25 00:00:03;;;;;;;0.83;0.50;;;;;;;;;;4556160;28;21994;-58
2022/02/25 00:02:21;;;;;;;0.52;0.45;;;;;;;;;;4556517;27;20049;-58
2022/02/25 00:04:32;;;;;;;1.80;0.57;;;;;;;;;;4556272;28;28444;-58
2022/02/25 00:06:42;;;;;;;0.63;0.40;;;;;;;;;;4558778;28;20032;-59
2022/02/25 00:08:53;;;;;;;0.50;0.50;;;;;;;;;;4558782;28;20098;-58
2022/02/25 00:11:03;;;;;;;0.43;0.33;;;;;;;;;;4529505;28;20565;-58
2022/02/25 00:13:14;;;;;;;0.40;0.40;;;;;;;;;;4558959;28;20040;-58
2022/02/25 00:15:24;;;;;;;0.40;0.40;;;;;;;;;;4558206;28;20033;-59
2022/02/25 00:17:35;;;;;;;0.97;0.50;;;;;;;;;;4557705;28;20128;-58
2022/02/25 00:19:45;;;;;;;1.13;0.60;;;;;;;;;;4558101;28;20024;-58
2022/02/25 00:21:56;;;;;;;0.97;0.70;;;;;;;;;;4558079;27;20020;-58
2022/02/25 00:24:06;;;;;;;0.50;0.40;;;;;;;;;;4556459;28;20513;-58
2022/02/25 00:26:17;;;;;;;0.80;0.70;;;;;;;;;;4557797;28;20056;-57
2022/02/25 00:28:27;;;;;;;1.40;0.70;;;;;;;;;;4572632;27;23635;-57
2022/02/25 00:30:38;;;;;;;0.70;0.60;;;;;;;;;;4557277;28;20103;-57
2022/02/25 00:32:48;;;;;;;1.00;0.70;;;;;;;;;;4557079;28;20036;-58
2022/02/25 00:34:59;;;;;;;0.60;0.60;;;;;;;;;;4558160;28;20241;-57
2022/02/25 00:37:10;;;;;;;1.30;0.83;;;;;;;;;;4573410;27;20516;-56
2022/02/25 00:39:20;;;;;;;1.03;0.60;;;;;;;;;;4558956;28;20086;-58
2022/02/25 00:41:31;;;;;;;1.00;0.63;;;;;;;;;;4555777;28;20477;-57
2022/02/25 00:43:41;;;;;;;0.70;0.60;;;;;;;;;;4558662;28;20048;-58
2022/02/25 00:45:52;;;;;;;1.97;0.80;;;;;;;;;;4557519;27;40176;-57
2022/02/25 00:48:02;;;;;;;1.10;0.60;;;;;;;;;;4543658;28;20073;-58
2022/02/25 00:50:13;;;;;;;0.88;0.60;;;;;;;;;;4559167;28;20081;-58
2022/02/25 00:52:23;;;;;;;2.00;0.77;;;;;;;;;;4557392;28;20552;-58
2022/02/25 00:54:34;;;;;;;0.53;0.50;;;;;;;;;;4558512;28;20066;-57
2022/02/25 00:56:44;;;;;;;1.23;0.67;;;;;;;;;;4557150;28;43363;-57
2022/02/25 00:58:55;;;;;;;0.90;0.70;;;;;;;;;;4558431;27;20460;-58
2022/02/25 01:01:05;;;;;;;2.10;0.67;;;;;;;;;;4557261;27;20025;-59
2022/02/25 01:03:16;;;;;;;1.43;0.50;;;;;;;;;;4558848;28;20385;-58
2022/02/25 01:05:26;;;;;;;1.20;0.77;;;;;;;;;;4557296;28;20439;-59
2022/02/25 01:07:38;;;;;;;1.37;0.60;;;;;;;;;;4558711;28;20071;-59
2022/02/25 01:09:48;;;;;;;1.65;0.60;;;;;;;;;;4574214;27;20024;-58
2022/02/25 01:11:59;;;;;;;1.17;0.60;;;;;;;;;;4556552;27;26891;-59
2022/02/25 01:14:09;;;;;;;0.80;0.60;;;;;;;;;;4557492;28;20461;-58
2022/02/25 01:16:20;;;;;;;0.70;0.60;;;;;;;;;;4557469;28;20915;-58
2022/02/25 01:18:30;;;;;;;1.60;0.50;;;;;;;;;;4558774;28;20020;-58
2022/02/25 01:20:41;;;;;;;1.20;0.60;;;;;;;;;;4558895;28;20029;-58
2022/02/25 01:22:51;;;;;;;1.33;0.73;;;;;;;;;;4543557;28;34156;-58
2022/02/25 01:25:02;;;;;;;0.80;0.70;;;;;;;;;;4557023;28;20131;-58
2022/02/25 01:27:12;;;;;;;1.00;0.60;;;;;;;;;;4572867;27;20056;-58
2022/02/25 01:29:23;;;;;;;1.40;0.53;;;;;;;;;;4555973;28;20342;-58
2022/02/25 01:31:33;;;;;;;1.90;0.90;;;;;;;;;;4558682;27;20025;-58
2022/02/25 01:33:44;;;;;;;1.20;0.60;;;;;;;;;;4556932;27;27290;-58
2022/02/25 01:35:54;;;;;;;1.60;0.80;;;;;;;;;;4556616;28;20021;-58
2022/02/25 01:38:05;;;;;;;2.47;0.83;;;;;;;;;;4556990;28;20595;-58
2022/02/25 01:40:15;;;;;;;1.10;0.70;;;;;;;;;;4557667;28;26954;-58
2022/02/25 01:42:25;;;;;;;1.90;0.83;;;;;;;;;;4557828;28;20063;-58
2022/02/25 01:44:41;;;;;;;1.80;0.97;;;;;;;;;;4559103;28;20120;-58
2022/02/25 01:46:54;;;;;;;1.42;0.75;;;;;;;;;;4571735;27;20466;-58
2022/02/25 01:49:04;;;;;;;1.52;0.75;;;;;;;;;;4557767;28;20037;-58
2022/02/25 01:51:16;;;;;;;;;;;;;;;;;;4558438;28;20028;-58
2022/02/25 01:53:27;;;;;;;2.42;0.80;;;;;;;;;;4558891;28;19921;-58
2022/02/25 01:55:39;;;;;;;1.17;0.70;;;;;;;;;;4559232;28;22351;-58
2022/02/25 01:57:50;;;;;;;2.00;0.80;;;;;;;;;;4559505;28;20040;-58
2022/02/25 02:00:00;;;;;;;2.33;0.80;;;;;;;;;;4559071;28;20032;-58
2022/02/25 02:02:11;;;;;;;1.97;0.60;;;;;;;;;;4558402;28;20066;-58
2022/02/25 02:04:22;;;;;;;2.13;0.80;;;;;;;;;;4573477;27;20036;-59
2022/02/25 02:06:33;;;;;;;1.95;0.80;;;;;;;;;;4556207;28;20036;-58
2022/02/25 02:08:43;;;;;;;1.70;0.93;;;;;;;;;;4558956;28;20137;-58
2022/02/25 02:10:54;;;;;;;1.23;0.80;;;;;;;;;;4555724;28;24030;-58
2022/02/25 02:13:04;;;;;;;1.00;0.63;;;;;;;;;;4557321;28;20112;-58
2022/02/25 02:15:15;;;;;;;2.07;0.80;;;;;;;;;;4559281;28;20037;-58
2022/02/25 02:17:25;;;;;;;2.47;0.97;;;;;;;;;;4557992;28;20032;-58
2022/02/25 02:19:36;;;;;;;1.97;0.90;;;;;;;;;;4558516;28;20843;-58
2022/02/25 02:21:49;;;;;;;1.87;0.80;;;;;;;;;;4556755;28;20090;-59
2022/02/25 02:24:00;;;;;;;2.63;0.80;;;;;;;;;;4556710;28;20655;-58
2022/02/25 02:26:10;;;;;;;1.30;0.82;;;;;;;;;;4571932;27;20077;-58
2022/02/25 02:28:21;;;;;;;1.90;0.70;;;;;;;;;;4556514;28;20570;-58
2022/02/25 02:30:32;;;;;;;1.58;0.70;;;;;;;;;;4555630;28;20048;-59
2022/02/25 02:32:42;;;;;;;1.67;0.77;;;;;;;;;;4557741;28;20464;-58
2022/02/25 02:34:53;;;;;;;2.23;0.90;;;;;;;;;;4558897;28;20072;-58
2022/02/25 02:37:07;;;;;;;0.90;0.70;;;;;;;;;;4556765;28;20374;-58
2022/02/25 02:39:17;;;;;;;1.70;0.90;;;;;;;;;;4541646;28;20109;-58
2022/02/25 02:41:28;;;;;;;2.83;1.00;;;;;;;;;;4556665;28;20128;-58
2022/02/25 02:43:38;;;;;;;1.80;0.80;;;;;;;;;;4557647;28;21205;-58
2022/02/25 02:45:49;;;;;;;1.63;0.80;;;;;;;;;;4574335;27;20044;-58
2022/02/25 02:47:59;;;;;;;2.20;1.00;;;;;;;;;;4556736;28;24954;-58
2022/02/25 02:50:10;;;;;;;3.37;0.90;;;;;;;;;;4559878;28;20131;-58
2022/02/25 02:52:20;;;;;;;1.88;0.80;;;;;;;;;;4574972;27;20575;-58
2022/02/25 02:54:31;;;;;;;1.33;0.80;;;;;;;;;;4559935;27;20043;-58
2022/02/25 02:56:41;;;;;;;2.07;0.80;;;;;;;;;;4560541;28;20381;-58
2022/02/25 02:58:55;;;;;;;3.43;0.90;;;;;;;;;;4560655;28;29661;-61
2022/02/25 03:01:06;;;;;;;2.33;1.13;;;;;;;;;;4558793;28;20025;-58
2022/02/25 03:03:17;;;;;;;2.47;1.00;;;;;;;;;;4561062;28;20045;-58
2022/02/25 03:05:28;;;;;;;1.70;0.90;;;;;;;;;;4559487;28;20115;-58
2022/02/25 03:07:39;;;;;;;1.60;1.00;;;;;;;;;;4560133;28;20348;-58
2022/02/25 03:09:49;;;;;;;2.70;1.13;;;;;;;;;;4558235;28;20098;-58
2022/02/25 03:12:02;;;;;;;1.53;0.73;;;;;;;;;;4557783;28;20098;-60
2022/02/25 03:14:12;;;;;;;1.35;0.70;;;;;;;;;;4576845;27;20043;-57
2022/02/25 03:16:23;;;;;;;1.93;0.90;;;;;;;;;;4560851;28;20144;-58
2022/02/25 03:18:33;;;;;;;1.17;0.90;;;;;;;;;;4561005;28;20043;-58
2022/02/25 03:20:44;;;;;;;3.13;1.00;;;;;;;;;;4559194;28;20390;-58
2022/02/25 03:22:55;;;;;;;1.67;0.90;;;;;;;;;;4559644;28;20531;-58
2022/02/25 03:25:06;;;;;;;1.98;0.93;;;;;;;;;;4542553;28;20744;-58
2022/02/25 03:27:16;;;;;;;2.70;1.15;;;;;;;;;;4559068;28;20040;-58
2022/02/25 03:29:27;;;;;;;1.80;1.00;;;;;;;;;;4560658;28;20592;-58
2022/02/25 03:31:37;;;;;;;3.10;1.30;;;;;;;;;;4561018;28;20055;-58
2022/02/25 03:33:48;;;;;;;2.10;0.93;;;;;;;;;;4547266;28;40269;-58
2022/02/25 03:35:58;;;;;;;4.20;1.30;;;;;;;;;;4559058;27;20040;-58
2022/02/25 03:38:08;;;;;;;1.60;0.90;;;;;;;;;;4559674;28;20032;-58
2022/02/25 03:40:19;;;;;;;2.60;1.13;;;;;;;;;;4561431;28;27870;-58
2022/02/25 03:42:29;;;;;;;1.80;1.00;;;;;;;;;;4561105;28;20052;-58
2022/02/25 03:44:40;;;;;;;2.33;1.03;;;;;;;;;;4558328;28;20028;-58
2022/02/25 03:46:50;;;;;;;3.10;1.07;;;;;;;;;;4560435;28;22671;-58
2022/02/25 03:49:01;;;;;;;1.77;1.20;;;;;;;;;;4559228;28;20032;-58
2022/02/25 03:51:11;;;;;;;3.90;1.60;;;;;;;;;;4558812;28;20484;-58
2022/02/25 03:53:22;;;;;;;2.77;1.20;;;;;;;;;;4561406;28;31245;-57
2022/02/25 03:55:33;;;;;;;3.50;1.37;;;;;;;;;;4542117;28;20480;-58
2022/02/25 03:57:43;;;;;;;1.90;1.17;;;;;;;;;;4558936;27;20047;-58
2022/02/25 03:59:53;;;;;;;2.97;1.40;;;;;;;;;;4560097;28;31132;-58
2022/02/25 04:02:04;;;;;;;2.67;1.03;;;;;;;;;;4558965;28;20059;-58
2022/02/25 04:04:15;;;;;;;4.27;1.20;;;;;;;;;;4560968;28;20036;-59
2022/02/25 04:06:27;;;;;;;2.33;1.00;;;;;;;;;;4560747;28;20035;-58
2022/02/25 04:08:38;;;;;;;2.67;1.27;;;;;;;;;;4560791;28;20028;-58
2022/02/25 04:10:49;;;;;;;1.80;1.00;;;;;;;;;;4558959;28;20035;-58
2022/02/25 04:12:59;;;;;;;2.23;1.13;;;;;;;;;;4558214;28;28632;-58
2022/02/25 04:15:10;;;;;;;1.67;1.00;;;;;;;;;;4560776;27;20493;-58
2022/02/25 04:17:20;;;;;;;1.73;0.90;;;;;;;;;;4561445;28;20037;-58
2022/02/25 04:19:31;;;;;;;2.30;1.10;;;;;;;;;;4557600;28;20121;-58
2022/02/25 04:21:42;;;;;;;1.67;0.97;;;;;;;;;;4560491;28;20106;-58
2022/02/25 04:23:53;;;;;;;2.20;1.00;;;;;;;;;;4558506;28;20093;-58
2022/02/25 04:26:04;;;;;;;3.00;1.17;;;;;;;;;;4559109;28;20131;-58
2022/02/25 04:28:15;;;;;;;2.07;1.00;;;;;;;;;;4560856;28;20040;-58
2022/02/25 04:30:26;;;;;;;2.53;1.20;;;;;;;;;;4560338;28;20265;-58
2022/02/25 04:32:36;;;;;;;4.10;0.80;;;;;;;;;;4558307;28;20032;-58
2022/02/25 04:34:48;;;;;;;2.07;1.00;;;;;;;;;;4559508;27;20037;-58
2022/02/25 04:36:58;;;;;;;1.95;1.00;;;;;;;;;;4557887;28;20063;-58
2022/02/25 04:39:09;;;;;;;3.33;1.27;;;;;;;;;;4544082;28;20496;-58
2022/02/25 04:41:20;;;;;;;1.67;0.90;;;;;;;;;;4557830;28;20035;-58
2022/02/25 04:43:31;;;;;;;2.95;1.13;;;;;;;;;;4560552;27;20046;-58
2022/02/25 04:45:42;;;;;;;3.50;1.30;;;;;;;;;;4545449;28;20032;-58
2022/02/25 04:47:52;;;;;;;2.00;0.87;;;;;;;;;;4559143;28;20032;-58
2022/02/25 04:50:03;;;;;;;2.53;1.00;;;;;;;;;;4559359;28;20048;-58
2022/02/25 04:52:14;;;;;;;2.00;1.03;;;;;;;;;;4558512;28;20033;-58
2022/02/25 04:54:24;;;;;;;2.47;1.10;;;;;;;;;;4556665;28;20032;-58
2022/02/25 04:56:35;;;;;;;2.23;1.00;;;;;;;;;;4574763;27;21043;-60
2022/02/25 04:58:45;;;;;;;3.30;1.00;;;;;;;;;;4557401;28;20032;-58
2022/02/25 05:00:56;;;;;;;2.03;0.80;;;;;;;;;;4559125;28;20640;-58
2022/02/25 05:03:08;;;;;;;;;;;;;;;;;;4562543;28;21147;-58
2022/02/25 05:05:18;;;;;;;1.67;0.90;;;;;;;;;;4572713;27;19916;-58
2022/02/25 05:07:29;;;;;;;3.10;1.10;;;;;;;;;;4574568;27;20527;-58
2022/02/25 05:09:39;;;;;;;1.97;0.77;;;;;;;;;;4559269;28;20317;-58
2022/02/25 05:11:49;;;;;;;3.10;1.10;;;;;;;;;;4558806;28;20522;-58
2022/02/25 05:14:02;;;;;;;2.17;0.90;;;;;;;;;;4557980;28;36462;-57
2022/02/25 05:21:10;;;;;;;1.67;0.82;;;;;;;;;;4556533;28;20118;-58
2022/02/25 05:23:21;;;;;;;2.53;1.20;;;;;;;;;;4558648;28;20024;-57
2022/02/25 05:25:32;;;;;;;2.70;0.93;;;;;;;;;;4556521;28;20032;-58
2022/02/25 05:27:42;;;;;;;3.25;1.13;;;;;;;;;;4560029;28;20083;-58
2022/02/25 05:29:53;;;;;;;2.50;1.00;;;;;;;;;;4558713;27;20028;-58
2022/02/25 05:32:03;;;;;;;1.83;0.80;;;;;;;;;;4556288;28;20078;-58
2022/02/25 05:34:14;;;;;;;3.43;1.30;;;;;;;;;;4559266;28;20473;-58
2022/02/25 05:36:24;;;;;;;1.90;0.97;;;;;;;;;;4557455;28;20055;-59
2022/02/25 05:38:35;;;;;;;1.73;1.07;;;;;;;;;;4556444;28;32825;-58
2022/02/25 05:40:45;;;;;;;1.47;0.73;;;;;;;;;;4557133;28;20039;-58
2022/02/25 05:42:56;;;;;;;3.13;1.07;;;;;;;;;;4558752;28;20036;-58
2022/02/25 05:45:07;;;;;;;1.40;0.80;;;;;;;;;;4559961;27;20041;-58
2022/02/25 05:47:18;;;;;;;2.90;1.02;;;;;;;;;;4555388;28;20119;-58
2022/02/25 05:49:29;;;;;;;3.43;1.03;;;;;;;;;;4557377;28;20029;-58
2022/02/25 05:51:40;;;;;;;3.20;1.15;;;;;;;;;;4558423;28;20040;-58
2022/02/25 05:53:50;;;;;;;5.13;1.60;;;;;;;;;;4555008;28;20033;-58
2022/02/25 05:56:01;;;;;;;3.07;1.53;;;;;;;;;;4557476;28;20032;-58
2022/02/25 05:58:11;;;;;;;1.93;1.20;;;;;;;;;;4557405;27;20035;-58
2022/02/25 06:00:22;;;;;;;2.97;1.10;;;;;;;;;;4557864;27;20105;-58
2022/02/25 06:02:33;;;;;;;2.67;1.25;;;;;;;;;;4557633;28;20147;-58
2022/02/25 06:04:43;;;;;;;1.87;0.90;;;;;;;;;;4560960;28;20032;-58
2022/02/25 06:06:54;;;;;;;2.77;1.30;;;;;;;;;;4558440;28;20028;-57
2022/02/25 06:09:04;;;;;;;3.10;1.07;;;;;;;;;;4556110;28;23311;-58
2022/02/25 06:11:15;;;;;;;2.65;1.20;;;;;;;;;;4558225;28;20025;-58
2022/02/25 06:13:26;;;;;;;2.77;1.30;;;;;;;;;;4557517;28;20375;-58
2022/02/25 06:15:38;;;;;;;3.77;1.50;;;;;;;;;;4556439;28;20408;-58
2022/02/25 06:17:50;;;;;;;2.78;1.48;;;;;;;;;;4557774;28;20020;-58
2022/02/25 06:20:00;;;;;;;;;;;;;;;;;;4555434;28;20846;-58
2022/02/25 06:22:11;;;;;;;4.70;1.77;;;;;;;;;;4557915;28;20556;-58
2022/02/25 06:24:21;;;;;;;3.33;1.33;;;;;;;;;;4561838;28;20047;-58
2022/02/25 06:26:32;;;;;;;2.80;1.20;;;;;;;;;;4560094;28;27233;-58
2022/02/25 06:28:42;;;;;;;2.80;1.37;;;;;;;;;;4560117;28;20044;-58
2022/02/25 06:30:53;;;;;;;3.43;1.17;;;;;;;;;;4561428;28;20036;-58
2022/02/25 06:33:03;;;;;;;3.45;1.23;;;;;;;;;;4559616;28;20350;-58
2022/02/25 06:35:14;;;;;;;4.20;1.30;;;;;;;;;;4560589;28;20032;-58
2022/02/25 06:37:26;;;;;;;3.83;1.33;;;;;;;;;;4559051;28;20044;-58
2022/02/25 06:39:36;;;;;;;2.78;1.48;;;;;;;;;;4557694;28;20037;-58
2022/02/25 06:41:47;;;;;;;2.67;1.27;;;;;;;;;;4559356;28;21077;-58
2022/02/25 06:43:57;;;;;;;2.63;1.20;;;;;;;;;;4559610;28;24511;-58
2022/02/25 06:46:11;;;;;;;3.60;1.40;;;;;;;;;;4557086;28;20024;-57
2022/02/25 06:48:21;;;;;;;4.28;1.42;;;;;;;;;;4545328;28;20047;-58
2022/02/25 06:50:32;;;;;;;2.90;1.60;;;;;;;;;;4559155;28;20857;-58
2022/02/25 06:52:43;;;;;;;3.47;1.23;;;;;;;;;;4561685;28;20035;-57
2022/02/25 06:54:53;;;;;;;2.72;1.20;;;;;;;;;;4558430;28;20665;-57
2022/02/25 06:57:04;;;;;;;4.23;1.43;;;;;;;;;;4560666;28;20059;-57
2022/02/25 06:59:14;;;;;;;3.50;1.40;;;;;;;;;;4558765;28;34160;-58
2022/02/25 07:01:24;;;;;;;3.03;1.30;;;;;;;;;;4558800;28;20044;-57
2022/02/25 07:03:35;;;;;;;2.70;1.27;;;;;;;;;;4560208;28;20048;-58
2022/02/25 07:05:45;;;;;;;2.40;1.10;;;;;;;;;;4557746;28;20032;-58
2022/02/25 07:07:56;;;;;;;4.40;1.60;;;;;;;;;;4556191;28;20050;-58
2022/02/25 07:10:07;;;;;;;3.80;1.33;;;;;;;;;;4559943;28;20036;-58
2022/02/25 07:12:19;;;;;;;3.40;1.50;;;;;;;;;;4559893;28;20676;-59
2022/02/25 07:14:30;;;;;;;2.70;1.23;;;;;;;;;;4558897;28;20187;-58
2022/02/25 07:16:40;;;;;;;2.70;1.13;;;;;;;;;;4560427;28;20166;-58
2022/02/25 07:18:51;;;;;;;4.10;1.53;;;;;;;;;;4561147;28;20528;-59
2022/02/25 07:21:01;;;;;;;3.30;1.20;;;;;;;;;;4559308;28;20117;-58
2022/02/25 07:23:12;;;;;;;3.23;1.40;;;;;;;;;;4558252;27;20040;-57
2022/02/25 07:25:23;;;;;;;4.25;1.48;;;;;;;;;;4560267;28;20029;-58
2022/02/25 07:27:33;;;;;;;3.10;1.30;;;;;;;;;;4560793;28;20045;-58
2022/02/25 07:29:44;;;;;;;3.70;1.20;;;;;;;;;;4557409;28;20029;-58
2022/02/25 07:31:54;;;;;;;3.67;1.23;;;;;;;;;;4559097;28;20485;-58
2022/02/25 07:34:06;;;;;;;3.80;1.40;;;;;;;;;;4557689;27;20259;-58
2022/02/25 07:36:16;;;;;;;5.57;1.40;;;;;;;;;;4559110;28;20611;-58
2022/02/25 07:38:27;;;;;;;3.90;1.40;;;;;;;;;;4558563;28;20032;-59
2022/02/25 07:40:37;;;;;;;2.43;0.97;;;;;;;;;;4556223;28;38908;-59
2022/02/25 07:42:49;;;;;;;2.10;1.20;;;;;;;;;;4559126;28;20048;-58
2022/02/25 07:44:59;;;;;;;3.90;1.20;;;;;;;;;;4558724;27;20062;-58
2022/02/25 07:47:09;;;;;;;3.40;1.10;;;;;;;;;;4559074;28;21372;-58
2022/02/25 07:49:20;;;;;;;2.53;1.27;;;;;;;;;;4558777;28;20101;-58
2022/02/25 07:51:30;;;;;;;3.77;1.43;;;;;;;;;;4555252;28;34747;-59
2022/02/25 07:53:41;;;;;;;3.63;1.40;;;;;;;;;;4560266;28;20040;-58
2022/02/25 07:55:53;;;;;;;4.30;1.43;;;;;;;;;;4560389;28;20128;-58
2022/02/25 07:58:05;;;;;;;4.00;1.33;;;;;;;;;;4558060;28;20279;-58
2022/02/25 08:00:17;;;;;;;3.83;1.30;;;;;;;;;;4576285;27;20319;-58
2022/02/25 08:02:27;;;;;;;3.72;1.30;;;;;;;;;;4576619;27;20035;-58
2022/02/25 08:04:38;;;;;;;4.07;1.37;;;;;;;;;;4561140;28;20043;-58
2022/02/25 08:06:48;;;;;;;3.27;1.00;;;;;;;;;;4559727;27;24067;-58
2022/02/25 08:08:59;;;;;;;3.70;1.27;;;;;;;;;;4563041;27;20561;-58
2022/02/25 08:11:09;;;;;;;5.67;1.60;;;;;;;;;;4558492;28;20035;-58
2022/02/25 08:13:20;;;;;;;4.60;1.20;;;;;;;;;;4558928;27;20112;-58
2022/02/25 08:15:34;;;;;;;4.87;1.43;;;;;;;;;;4558535;27;20078;-58
2022/02/25 08:17:45;;;;;;;3.78;1.40;;;;;;;;;;4557214;28;20043;-58
2022/02/25 08:19:55;;;;;;;3.85;1.35;;;;;;;;;;4560360;28;20670;-58
2022/02/25 08:22:06;;;;;;;4.10;1.30;;;;;;;;;;4558206;28;20043;-58
2022/02/25 08:24:16;;;;;;;4.30;1.23;;;;;;;;;;4561532;28;20048;-58
2022/02/25 08:26:27;;;;;;;4.73;1.30;;;;;;;;;;4557408;27;20036;-58
2022/02/25 08:28:37;;;;;;;3.97;1.20;;;;;;;;;;4556022;28;20036;-58
2022/02/25 08:30:48;;;;;;;2.33;1.00;;;;;;;;;;4561586;28;20062;-58
2022/02/25 08:33:01;;;;;;;3.40;1.37;;;;;;;;;;4559372;28;20032;-58
2022/02/25 08:35:12;;;;;;;4.85;1.50;;;;;;;;;;4558194;28;20043;-58
2022/02/25 08:37:23;;;;;;;3.28;1.20;;;;;;;;;;4557847;28;20033;-58
2022/02/25 08:39:34;;;;;;;3.63;1.27;;;;;;;;;;4558465;28;20036;-58
2022/02/25 08:41:45;;;;;;;4.07;1.20;;;;;;;;;;4542241;28;20091;-58
2022/02/25 08:43:55;;;;;;;4.00;1.45;;;;;;;;;;4559724;28;20958;-58
2022/02/25 08:46:06;;;;;;;3.13;1.30;;;;;;;;;;4559083;28;20444;-58
2022/02/25 08:48:16;;;;;;;3.00;1.20;;;;;;;;;;4557999;28;20037;-58
2022/02/25 08:50:28;;;;;;;3.80;1.43;;;;;;;;;;4557288;28;20028;-58
2022/02/25 08:52:38;;;;;;;3.90;1.83;;;;;;;;;;4558440;28;20024;-58
2022/02/25 08:54:50;;;;;;;4.03;1.67;;;;;;;;;;4533347;28;20046;-58
2022/02/25 08:57:00;;;;;;;2.83;1.30;;;;;;;;;;4558048;28;20564;-58
2022/02/25 08:59:11;;;;;;;4.00;1.33;;;;;;;;;;4560258;28;20734;-58
2022/02/25 09:01:23;;;;;;;3.37;1.50;;;;;;;;;;4558962;28;20037;-58
2022/02/25 09:03:34;;;;;;;2.95;0.90;;;;;;;;;;4558915;28;20048;-57
2022/02/25 09:05:44;;;;;;;3.33;1.20;;;;;;;;;;4557801;28;20036;-58
2022/02/25 09:07:55;;;;;;;4.63;1.47;;;;;;;;;;4557465;28;20116;-58
2022/02/25 09:10:06;;;;;;;3.40;1.27;;;;;;;;;;4558537;28;20052;-58
2022/02/25 09:12:17;;;;;;;3.22;1.02;;;;;;;;;;4573405;27;20549;-58
2022/02/25 09:14:29;;;;;;;4.17;1.37;;;;;;;;;;4558617;28;20090;-58
2022/02/25 09:16:39;;;;;;;3.15;1.30;;;;;;;;;;4559160;28;20590;-57
2022/02/25 09:18:50;;;;;;;4.70;1.43;;;;;;;;;;4555166;28;20094;-58
2022/02/25 09:21:00;;;;;;;2.87;1.20;;;;;;;;;;4560131;28;25411;-58
2022/02/25 09:23:11;;;;;;;2.73;1.13;;;;;;;;;;4560471;28;20045;-58
2022/02/25 09:25:21;;;;;;;4.90;1.33;;;;;;;;;;4558496;28;20063;-58
2022/02/25 09:27:32;;;;;;;2.50;1.37;;;;;;;;;;4559324;27;20032;-57
2022/02/25 09:29:43;;;;;;;3.60;1.43;;;;;;;;;;4559628;28;20040;-58
2022/02/25 09:31:53;;;;;;;3.42;1.17;;;;;;;;;;4542079;28;20033;-58
2022/02/25 09:34:04;;;;;;;3.17;1.20;;;;;;;;;;4559010;28;20032;-58
2022/02/25 09:36:15;;;;;;;4.05;1.33;;;;;;;;;;4558874;28;20041;-58
2022/02/25 09:38:25;;;;;;;4.10;1.20;;;;;;;;;;4559096;28;20428;-58
2022/02/25 09:40:37;;;;;;;2.87;1.20;;;;;;;;;;4560007;27;26267;-58
2022/02/25 09:42:48;;;;;;;3.88;1.20;;;;;;;;;;4562266;28;20044;-58
2022/02/25 09:44:58;;;;;;;2.20;1.07;;;;;;;;;;4561671;28;20028;-58
2022/02/25 09:47:09;;;;;;;3.87;1.20;;;;;;;;;;4556776;27;20039;-58
2022/02/25 09:49:19;;;;;;;2.93;1.20;;;;;;;;;;4558424;28;26311;-58
2022/02/25 09:51:30;;;;;;;5.07;1.20;;;;;;;;;;4555973;28;20055;-58
2022/02/25 09:53:40;;;;;;;3.80;1.10;;;;;;;;;;4559758;28;20289;-58
2022/02/25 09:55:51;;;;;;;2.30;1.03;;;;;;;;;;4540636;28;20033;-58
2022/02/25 09:58:04;;;;;;;4.17;1.10;;;;;;;;;;4557920;28;20530;-57
2022/02/25 10:00:15;;;;;;;3.88;1.23;;;;;;;;;;4557137;28;20039;-58
2022/02/25 10:02:46;;;;;;;2.17;0.98;;;;;;;;;;4557952;28;20026;-58
2022/02/25 10:05:11;;;;;;;2.13;1.05;;;;;;;;;;4557971;28;21480;-58
2022/02/25 10:07:27;;;;;;;3.40;1.17;;;;;;;;;;4558193;28;20063;-58
2022/02/25 10:09:39;;;;;;;3.63;1.30;;;;;;;;;;4558047;28;20587;-58
2022/02/25 10:12:10;;;;;;;3.47;1.30;;;;;;;;;;4561710;28;20060;-58
2022/02/25 10:14:35;;;;;;;4.15;1.10;;;;;;;;;;4557692;28;20098;-58
2022/02/25 10:17:14;;;;;;;3.45;0.98;;;;;;;;;;4571862;27;20563;-58
2022/02/25 10:19:28;;;;;;;4.28;1.30;;;;;;;;;;4559420;28;20155;-58
2022/02/25 10:21:38;;;;;;;3.60;1.10;;;;;;;;;;4556848;28;20032;-58
2022/02/25 10:23:49;;;;;;;3.40;1.00;;;;;;;;;;4560183;28;20044;-57
2022/02/25 10:26:14;;;;;;;3.30;1.30;;;;;;;;;;4556699;28;20067;-58
2022/02/25 10:28:27;;;;;;;4.07;1.58;;;;;;;;;;4556644;27;20646;-58
2022/02/25 10:30:39;;;;;;;3.10;1.33;;;;;;;;;;4558277;28;20044;-59
2022/02/25 10:32:55;;;;;;;4.65;1.52;;;;;;;;;;4557469;28;20037;-58
2022/02/25 10:35:30;;;;;;;2.58;1.25;;;;;;;;;;4557125;28;20033;-58
2022/02/25 10:38:06;;;;;;;2.47;1.13;;;;;;;;;;4558185;28;20623;-58
2022/02/25 10:40:17;;;;;;;4.53;1.60;;;;;;;;;;4559870;28;20118;-58
2022/02/25 10:42:27;;;;;;;4.10;1.50;;;;;;;;;;4557781;28;20035;-58
2022/02/25 10:44:44;;;;;;;3.30;1.40;;;;;;;;;;4556126;28;20039;-58
2022/02/25 10:47:12;;;;;;;3.75;1.50;;;;;;;;;;4555567;28;20790;-58
2022/02/25 10:49:26;;;;;;;4.65;1.75;;;;;;;;;;4558018;28;20497;-58
2022/02/25 10:51:37;;;;;;;2.88;1.33;;;;;;;;;;4558555;28;20033;-58
2022/02/25 10:53:50;;;;;;;3.73;1.37;;;;;;;;;;4558429;28;20040;-58
2022/02/25 10:56:05;;;;;;;3.67;1.38;;;;;;;;;;4558898;28;20051;-58
2022/02/25 10:58:17;;;;;;;3.67;1.50;;;;;;;;;;4556438;28;20107;-58
2022/02/25 11:00:28;;;;;;;6.45;1.90;;;;;;;;;;4553782;28;20032;-58
2022/02/25 11:02:40;;;;;;;4.20;1.80;;;;;;;;;;4541464;28;20076;-58
2022/02/25 11:04:58;;;;;;;3.75;1.77;;;;;;;;;;4561288;28;20024;-61
2022/02/25 11:07:09;;;;;;;3.95;1.40;;;;;;;;;;4573853;27;20028;-64
2022/02/25 11:09:20;;;;;;;3.13;1.50;;;;;;;;;;4546136;28;20029;-65
2022/02/25 11:11:31;;;;;;;4.70;1.55;;;;;;;;;;4558956;28;20135;-61
2022/02/25 11:13:42;;;;;;;;;;;;;;;;;;4559617;28;20028;-64
2022/02/25 11:15:53;;;;;;;3.47;1.42;;;;;;;;;;4573612;27;21482;-59
2022/02/25 11:18:04;;;;;;;;;;;;;;;;;;4562244;28;20100;-58
2022/02/25 11:20:28;;;;;;;3.30;1.50;;;;;;;;;;4576447;27;19969;-57
2022/02/25 11:22:40;;;;;;;4.68;1.70;;;;;;;;;;4573309;27;20032;-59
2022/02/25 11:24:51;;;;;;;4.65;1.60;;;;;;;;;;4561726;28;20028;-58
2022/02/25 11:27:02;;;;;;;3.63;1.47;;;;;;;;;;4562334;28;20048;-58
2022/02/25 11:29:13;;;;;;;4.90;1.80;;;;;;;;;;4559032;28;20548;-58
2022/02/25 11:31:26;;;;;;;5.57;1.98;;;;;;;;;;4541842;28;20029;-58
2022/02/25 11:33:36;;;;;;;3.90;1.50;;;;;;;;;;4559055;28;20032;-58
2022/02/25 11:35:51;;;;;;;3.80;1.30;;;;;;;;;;4559229;27;20025;-58
2022/02/25 11:38:10;;;;;;;4.40;1.83;;;;;;;;;;4561653;27;20021;-58
2022/02/25 11:41:00;;;;;;;6.25;2.40;;;;;;;;;;4560541;28;20182;-58
2022/02/25 11:43:10;;;;;;;4.88;2.10;;;;;;;;;;4559079;28;20052;-58
2022/02/25 11:45:23;;;;;;;3.67;1.60;;;;;;;;;;4557026;28;20797;-58
2022/02/25 11:47:39;;;;;;;3.95;1.40;;;;;;;;;;4571881;27;20955;-58
2022/02/25 11:49:49;;;;;;;4.88;2.20;;;;;;;;;;4550209;28;20032;-59
2022/02/25 11:52:02;;;;;;;4.20;1.77;;;;;;;;;;4559795;28;25227;-58
2022/02/25 11:54:33;;;;;;;5.25;1.88;;;;;;;;;;4561532;28;20044;-59
2022/02/25 11:56:45;;;;;;;3.78;1.48;;;;;;;;;;4558276;28;20037;-58
2022/02/25 11:58:55;;;;;;;;;;;;;;;;;;4560730;28;20029;-58
2022/02/25 12:01:19;;;;;;;5.07;1.73;;;;;;;;;;4557518;28;19939;-58
2022/02/25 12:03:34;;;;;;;5.00;1.80;;;;;;;;;;4575145;27;20052;-58
2022/02/25 12:05:46;;;;;;;5.50;2.00;;;;;;;;;;4558815;28;20039;-59
2022/02/25 12:07:57;;;;;;;4.32;1.42;;;;;;;;;;4555305;28;20079;-59
2022/02/25 12:10:10;;;;;;;4.57;1.77;;;;;;;;;;4558184;27;20132;-58
2022/02/25 12:12:23;;;;;;;4.72;1.55;;;;;;;;;;4559425;28;20028;-58
2022/02/25 12:14:58;;;;;;;4.50;1.52;;;;;;;;;;4560199;28;20036;-58
2022/02/25 12:17:09;;;;;;;5.25;1.75;;;;;;;;;;4561238;28;20044;-58
2022/02/25 12:19:21;;;;;;;4.87;1.50;;;;;;;;;;4551827;28;40286;-59
2022/02/25 12:21:43;;;;;;;3.97;1.45;;;;;;;;;;4558625;28;20032;-58
2022/02/25 12:24:09;;;;;;;4.15;1.60;;;;;;;;;;4540591;28;20041;-59
2022/02/25 12:26:30;;;;;;;4.97;1.88;;;;;;;;;;4555291;28;20028;-59
2022/02/25 12:28:49;;;;;;;2.80;1.25;;;;;;;;;;4557365;28;20127;-57
2022/02/25 12:31:03;;;;;;;4.38;1.45;;;;;;;;;;4557560;28;21475;-57
2022/02/25 12:33:31;;;;;;;3.58;1.63;;;;;;;;;;4558078;28;20405;-57
2022/02/25 12:35:46;;;;;;;6.47;2.05;;;;;;;;;;4559987;28;20131;-57
2022/02/25 12:37:57;;;;;;;5.85;2.45;;;;;;;;;;4541102;28;20219;-57
2022/02/25 12:40:10;;;;;;;6.35;2.60;;;;;;;;;;4558014;28;20108;-57
2022/02/25 12:42:28;;;;;;;5.10;1.95;;;;;;;;;;4559615;28;20708;-57
2022/02/25 12:44:42;;;;;;;3.85;1.30;;;;;;;;;;4557967;28;20051;-58
2022/02/25 12:46:57;;;;;;;2.58;1.15;;;;;;;;;;4558749;28;20024;-58
2022/02/25 12:49:10;;;;;;;2.70;1.20;;;;;;;;;;4561574;28;20123;-58
2022/02/25 12:51:22;;;;;;;2.35;1.17;;;;;;;;;;4556172;28;20037;-58
2022/02/25 12:53:46;;;;;;;3.58;1.58;;;;;;;;;;4558397;28;20086;-58
2022/02/25 12:55:58;;;;;;;3.38;1.33;;;;;;;;;;4556522;28;20572;-58
2022/02/25 12:58:08;;;;;;;;;;;;;;;;;;4558000;28;20543;-58
2022/02/25 13:00:20;;;;;;;3.37;1.50;;;;;;;;;;4556876;28;19994;-58
2022/02/25 13:02:30;;;;;;;3.23;1.43;;;;;;;;;;4559395;28;20531;-58
2022/02/25 13:04:47;;;;;;;4.20;1.45;;;;;;;;;;4555650;28;20020;-58
2022/02/25 13:06:59;;;;;;;3.85;1.58;;;;;;;;;;4557153;28;20583;-58
2022/02/25 13:09:13;;;;;;;2.15;1.30;;;;;;;;;;4561426;28;20032;-58
2022/02/25 13:11:25;;;;;;;3.05;1.30;;;;;;;;;;4555828;28;20126;-60
2022/02/25 13:13:36;;;;;;;3.38;1.50;;;;;;;;;;4554282;28;20071;-58
2022/02/25 13:15:46;;;;;;;3.53;1.20;;;;;;;;;;4557292;28;20072;-58
2022/02/25 13:17:57;;;;;;;4.20;1.60;;;;;;;;;;4571602;27;31295;-58